Time;durP1;ratioP1;P1;durP2;ratioP2;P2;SDS_P1;SDS_P2;PMS_P1;PMS_P2;Temp;Humidity;BMP_temperature;BMP_pressure;BME280_temperature;BME280_humidity;BME280_pressure;Samples;Min_cycle;Max_cycle;Signal;HPM_P1;HPM_P2
2023/04/03 00:01:45;;;;;;;3.80;2.10;;;3.60;99.90;;;2.38;100.00;98482.53;4999143;28;20119;-68
2023/04/03 00:04:13;;;;;;;5.07;2.00;;;3.40;99.90;;;2.41;100.00;98485.09;4998685;28;20133;-69
2023/04/03 00:06:40;;;;;;;4.10;2.15;;;3.50;99.90;;;2.39;100.00;98492.75;4998951;28;20049;-68
2023/04/03 00:09:07;;;;;;;4.53;1.90;;;3.40;99.90;;;2.39;100.00;98491.91;5001054;28;20389;-68
2023/04/03 00:11:36;;;;;;;5.60;2.22;;;3.50;99.90;;;2.46;100.00;98491.06;4997802;28;20488;-69
2023/04/03 00:14:06;;;;;;;2.92;1.75;;;3.60;99.90;;;2.48;100.00;98494.50;5001567;28;20065;-69
2023/04/03 00:16:33;;;;;;;2.63;1.70;;;3.50;99.90;;;2.39;100.00;98494.47;4991008;28;20045;-69
2023/04/03 00:19:00;;;;;;;5.03;1.80;;;3.50;99.90;;;2.19;100.00;98490.13;4999767;28;20046;-69
2023/04/03 00:21:27;;;;;;;7.03;2.00;;;3.50;99.90;;;2.33;100.00;98487.63;5000180;28;20050;-70
2023/04/03 00:23:54;;;;;;;4.85;2.30;;;3.40;99.90;;;2.16;100.00;98495.19;5000298;28;20049;-69
2023/04/03 00:26:21;;;;;;;3.40;1.88;;;3.30;99.90;;;1.93;100.00;98492.50;4998155;28;20503;-69
2023/04/03 00:28:48;;;;;;;6.28;1.85;;;3.30;99.90;;;1.87;100.00;98502.69;4999395;28;20059;-69
2023/04/03 00:31:16;;;;;;;6.32;2.22;;;3.20;99.90;;;1.68;100.00;98500.00;4997122;28;20050;-69
2023/04/03 00:33:43;;;;;;;3.92;2.20;;;3.10;99.90;;;1.75;100.00;98498.34;4981835;28;20054;-69
2023/04/03 00:36:11;;;;;;;3.65;1.90;;;3.00;99.90;;;1.68;100.00;98497.44;4999554;28;20092;-69
2023/04/03 00:38:39;;;;;;;6.47;2.15;;;3.00;99.90;;;1.67;100.00;98493.19;4998065;28;20042;-69
2023/04/03 00:41:07;;;;;;;3.72;2.05;;;2.90;99.90;;;1.60;100.00;98495.69;5003428;28;20124;-70
2023/04/03 00:43:34;;;;;;;5.35;2.00;;;2.90;99.90;;;1.56;100.00;98499.06;4999258;28;20440;-70
2023/04/03 00:46:02;;;;;;;3.78;1.98;;;2.80;99.90;;;1.44;100.00;98499.81;4999953;28;20054;-70
2023/04/03 00:48:35;;;;;;;3.05;1.73;;;2.80;99.90;;;1.41;100.00;98504.91;4988731;28;20148;-68
2023/04/03 00:51:06;;;;;;;4.45;1.95;;;2.80;99.90;;;1.32;100.00;98508.22;5002693;28;20050;-70
2023/04/03 00:53:47;;;;;;;3.67;1.90;;;2.70;99.90;;;1.22;100.00;98504.72;5000099;28;20393;-69
2023/04/03 00:56:21;;;;;;;3.80;2.03;;;2.70;99.90;;;1.18;100.00;98504.69;4987983;28;20042;-70
2023/04/03 00:58:56;;;;;;;3.85;1.90;;;2.60;99.90;;;1.27;100.00;98501.38;4995569;28;20112;-70
2023/04/03 01:01:27;;;;;;;4.18;2.20;;;2.60;99.90;;;1.23;100.00;98500.47;5000099;28;20052;-70
2023/04/03 01:03:55;;;;;;;4.45;2.05;;;2.50;99.90;;;1.18;100.00;98497.00;4997463;28;20857;-70
2023/04/03 01:06:31;;;;;;;5.32;2.60;;;2.50;99.90;;;1.14;100.00;98497.81;4997991;28;20061;-69
2023/04/03 01:08:59;;;;;;;4.75;2.22;;;2.50;99.90;;;0.98;100.00;98495.13;4998631;28;20431;-69
2023/04/03 01:11:27;;;;;;;4.05;2.25;;;2.40;99.90;;;1.01;100.00;98499.41;5011373;28;20050;-70
2023/04/03 01:13:54;;;;;;;3.95;2.50;;;2.40;99.90;;;0.95;100.00;98489.97;4999885;28;20054;-70
2023/04/03 01:16:21;;;;;;;5.05;2.00;;;2.40;99.90;;;0.87;100.00;98495.84;4998145;28;20057;-68
2023/04/03 01:18:48;;;;;;;4.60;2.42;;;2.30;99.90;;;0.86;100.00;98499.25;4992525;28;20461;-70
2023/04/03 01:22:02;;;;;;;6.78;2.40;;;2.30;99.90;;;0.79;100.00;98494.06;4998261;28;20039;-70
2023/04/03 01:24:36;;;;;;;6.88;2.67;;;2.20;99.90;;;0.80;100.00;98495.78;4989041;28;20130;-68
2023/04/03 01:27:06;;;;;;;4.80;2.33;;;2.20;99.90;;;0.70;100.00;98500.78;4995270;28;20060;-69
2023/04/03 01:29:34;;;;;;;4.75;2.13;;;2.20;99.90;;;0.65;100.00;98500.72;5001160;28;20141;-69
2023/04/03 01:32:03;;;;;;;5.68;2.70;;;2.10;99.90;;;0.62;100.00;98498.16;4999017;28;20062;-68
2023/04/03 01:34:30;;;;;;;5.20;2.00;;;2.10;99.90;;;0.53;100.00;98503.16;5000865;28;20129;-69
2023/04/03 01:36:58;;;;;;;5.10;2.13;;;2.00;99.90;;;0.44;100.00;98496.22;4996704;28;20052;-69
2023/04/03 01:39:25;;;;;;;3.60;2.25;;;2.00;99.90;;;0.45;100.00;98495.38;4981654;28;20563;-70
2023/04/03 01:41:52;;;;;;;4.85;2.05;;;1.90;99.90;;;0.41;100.00;98499.59;5000590;28;20050;-70
2023/04/03 01:44:19;;;;;;;6.57;2.75;;;1.90;99.90;;;0.49;100.00;98499.69;4998702;28;20068;-70
2023/04/03 01:46:47;;;;;;;4.82;2.53;;;1.90;99.90;;;0.45;100.00;98502.19;5003948;28;20058;-70
2023/04/03 01:49:14;;;;;;;4.40;2.17;;;1.90;99.90;;;0.43;100.00;98497.03;4996941;28;20050;-71
2023/04/03 01:51:41;;;;;;;4.28;2.40;;;1.90;99.90;;;0.45;100.00;98497.06;5000306;28;20057;-70
2023/04/03 01:54:08;;;;;;;5.13;2.65;;;1.80;99.90;;;0.39;100.00;98500.41;4999265;28;20046;-70
2023/04/03 01:56:35;;;;;;;3.38;1.80;;;1.80;99.90;;;0.33;100.00;98503.72;4995863;28;20082;-69
2023/04/03 01:59:02;;;;;;;4.32;2.05;;;1.80;99.90;;;0.39;100.00;98505.53;4998489;28;20045;-70
2023/04/03 02:01:30;;;;;;;7.18;2.53;;;1.80;99.90;;;0.32;100.00;98499.47;4996641;28;20052;-68
2023/04/03 02:03:57;;;;;;;4.18;2.25;;;1.80;99.90;;;0.34;100.00;98491.81;4995970;28;20264;-70
2023/04/03 02:06:25;;;;;;;3.97;2.05;;;1.80;99.90;;;0.36;100.00;98495.25;4996388;28;20100;-70
2023/04/03 02:08:52;;;;;;;4.35;2.30;;;1.80;99.90;;;0.23;100.00;98490.81;4999893;28;20508;-69
2023/04/03 02:11:20;;;;;;;5.82;2.10;;;1.80;99.90;;;0.23;100.00;98490.81;4998214;28;20058;-69
2023/04/03 02:13:46;;;;;;;7.13;2.78;;;1.70;99.90;;;0.01;100.00;98493.09;4998706;28;20124;-70
2023/04/03 02:16:13;;;;;;;5.75;2.63;;;1.70;99.90;;;0.11;100.00;98494.91;4996519;28;20056;-69
2023/04/03 02:18:41;;;;;;;4.93;2.28;;;1.60;99.90;;;0.06;100.00;98488.91;4997886;28;20141;-69
2023/04/03 02:21:08;;;;;;;6.72;2.85;;;1.60;99.90;;;0.11;100.00;98494.06;4995881;28;20050;-69
2023/04/03 02:23:38;;;;;;;4.35;2.22;;;1.50;99.90;;;0.02;100.00;98488.84;4997458;28;20063;-69
2023/04/03 02:26:12;;;;;;;4.60;2.10;;;1.60;99.90;;;-0.01;100.00;98495.63;4997289;28;20830;-69
2023/04/03 02:28:43;;;;;;;5.60;2.15;;;1.50;99.90;;;0.03;100.00;98493.97;4998588;28;20073;-70
2023/04/03 02:31:11;;;;;;;3.15;2.13;;;1.50;99.90;;;-0.06;100.00;98497.25;4995149;28;20133;-70
2023/04/03 02:33:39;;;;;;;3.83;2.13;;;1.40;99.90;;;-0.13;100.00;98498.00;5000804;28;20647;-70
2023/04/03 02:36:08;;;;;;;5.80;2.10;;;1.40;99.90;;;-0.09;100.00;98504.00;5000616;28;20057;-70
2023/04/03 02:38:41;;;;;;;5.50;2.20;;;1.30;99.90;;;0.01;100.00;98500.75;5004540;28;20065;-70
2023/04/03 02:41:11;;;;;;;7.13;2.60;;;1.40;99.90;;;-0.05;100.00;98504.06;5003138;28;20054;-70
2023/04/03 02:43:39;;;;;;;6.25;2.58;;;1.30;99.90;;;-0.07;100.00;98500.66;4999859;28;20473;-70
2023/04/03 02:46:07;;;;;;;5.00;2.10;;;1.30;99.90;;;-0.02;100.00;98496.47;4991490;28;20052;-70
2023/04/03 02:48:35;;;;;;;4.82;2.33;;;1.30;99.90;;;-0.04;100.00;98503.25;5003754;28;20081;-70
2023/04/03 02:51:02;;;;;;;5.05;2.28;;;1.30;99.90;;;0.05;100.00;98506.78;4999944;28;20428;-71
2023/04/03 02:53:30;;;;;;;5.43;2.47;;;1.30;99.90;;;0.05;100.00;98506.78;4986732;28;20500;-70
2023/04/03 02:55:57;;;;;;;7.60;2.72;;;1.30;99.90;;;0.04;100.00;98497.38;5002837;28;20054;-69
2023/04/03 02:58:29;;;;;;;6.22;2.78;;;1.30;99.90;;;-0.06;100.00;98498.94;4990676;28;20046;-70
2023/04/03 03:01:09;;;;;;;5.82;2.55;;;1.30;99.90;;;-0.02;100.00;98501.56;4984369;28;20050;-70
2023/04/03 03:03:36;;;;;;;4.43;2.90;;;1.30;99.90;;;-0.04;100.00;98508.34;5005357;28;20046;-70
2023/04/03 03:06:12;;;;;;;5.47;2.40;;;1.30;99.90;;;-0.07;100.00;98502.31;5003648;28;20058;-70
2023/04/03 03:08:39;;;;;;;5.55;2.45;;;1.30;99.90;;;-0.16;100.00;98502.19;5006380;28;20447;-70
2023/04/03 03:11:07;;;;;;;5.53;2.50;;;1.30;99.90;;;-0.20;100.00;98500.44;5001999;28;20046;-70
2023/04/03 03:13:34;;;;;;;4.00;2.30;;;1.30;99.90;;;-0.15;100.00;98507.31;5000209;28;20061;-70
2023/04/03 03:16:02;;;;;;;5.70;2.60;;;1.30;99.90;;;-0.20;100.00;98511.50;5003403;28;20081;-69
2023/04/03 03:18:30;;;;;;;5.60;2.90;;;1.30;99.90;;;-0.13;100.00;98508.22;4990803;28;20073;-69
2023/04/03 03:20:59;;;;;;;5.53;2.45;;;1.20;99.90;;;-0.21;100.00;98509.78;5005540;28;20488;-70
2023/04/03 03:23:33;;;;;;;6.60;2.90;;;1.30;99.90;;;-0.17;100.00;98509.00;5002166;28;20053;-70
2023/04/03 03:26:05;;;;;;;4.38;2.55;;;1.20;99.90;;;-0.32;100.00;98501.97;4996807;28;20553;-69
2023/04/03 03:28:32;;;;;;;7.43;2.75;;;1.20;99.90;;;-0.32;100.00;98501.97;4985393;28;20464;-70
2023/04/03 03:31:00;;;;;;;7.63;2.58;;;1.20;99.90;;;-0.30;100.00;98513.03;4998721;28;20058;-69
2023/04/03 03:33:29;;;;;;;7.57;3.33;;;1.20;99.90;;;-0.28;100.00;98508.81;5001176;28;20046;-69
2023/04/03 03:35:56;;;;;;;5.80;2.53;;;1.10;99.90;;;-0.27;100.00;98513.09;4999190;28;20057;-69
2023/04/03 03:38:25;;;;;;;5.35;2.55;;;1.10;99.90;;;-0.24;100.00;98509.75;4992620;28;20120;-68
2023/04/03 03:40:53;;;;;;;5.20;2.60;;;1.10;99.90;;;-0.26;100.00;98512.25;4998233;28;20136;-69
2023/04/03 03:43:20;;;;;;;6.22;2.83;;;1.10;99.90;;;-0.35;100.00;98511.25;4999461;28;20512;-69
2023/04/03 03:45:54;;;;;;;6.10;2.45;;;1.10;99.90;;;-0.33;100.00;98502.78;4999348;28;20461;-70
2023/04/03 03:48:22;;;;;;;6.72;2.75;;;1.10;99.90;;;-0.34;100.00;98516.41;4981231;28;20054;-69
2023/04/03 03:50:50;;;;;;;6.07;3.13;;;1.10;99.90;;;-0.35;100.00;98506.16;5000237;28;20054;-69
2023/04/03 03:53:17;;;;;;;6.63;2.90;;;1.10;99.90;;;-0.39;100.00;98504.38;4987526;28;20053;-69
2023/04/03 03:55:45;;;;;;;6.60;3.03;;;1.00;99.90;;;-0.47;100.00;98515.34;5000430;28;20057;-69
2023/04/03 03:58:13;;;;;;;4.20;2.17;;;1.00;99.90;;;-0.33;100.00;98507.03;5002791;28;20456;-70
2023/04/03 04:00:40;;;;;;;6.10;2.50;;;1.00;99.90;;;-0.43;100.00;98512.00;5001564;28;20042;-70
2023/04/03 04:03:07;;;;;;;6.82;2.53;;;1.00;99.90;;;-0.46;100.00;98522.16;4999414;28;20049;-69
2023/04/03 04:05:34;;;;;;;8.02;2.78;;;0.90;99.90;;;-0.43;100.00;98516.25;4998616;28;20050;-70
2023/04/03 04:08:03;;;;;;;6.00;2.30;;;0.90;99.90;;;-0.49;100.00;98521.25;5002659;28;20050;-70
2023/04/03 04:10:30;;;;;;;6.57;3.38;;;0.90;99.90;;;-0.50;100.00;98522.94;4989417;28;20053;-71
2023/04/03 04:12:57;;;;;;;6.40;3.08;;;0.80;99.90;;;-0.51;100.00;98517.81;5015574;28;20527;-70
2023/04/03 04:15:25;;;;;;;4.90;2.80;;;0.80;99.90;;;-0.55;100.00;98524.53;4978490;28;20116;-70
2023/04/03 04:17:53;;;;;;;6.07;2.63;;;0.80;99.90;;;-0.49;100.00;98523.78;4998397;28;20062;-70
2023/04/03 04:20:20;;;;;;;6.13;3.13;;;0.80;99.90;;;-0.42;100.00;98520.50;4999602;28;20385;-69
2023/04/03 04:22:47;;;;;;;6.78;2.88;;;0.80;99.90;;;-0.56;100.00;98522.84;5001252;28;20803;-69
2023/04/03 04:25:15;;;;;;;4.15;2.50;;;0.80;99.90;;;-0.52;100.00;98522.06;4984146;28;20061;-70
2023/04/03 04:27:42;;;;;;;4.70;2.28;;;0.80;99.90;;;-0.62;100.00;98525.28;5002917;28;20055;-70
2023/04/03 04:30:10;;;;;;;5.70;2.47;;;0.80;99.90;;;-0.74;100.00;98528.47;4999567;28;20133;-70
2023/04/03 04:32:37;;;;;;;6.93;2.75;;;0.80;99.90;;;-0.68;100.00;98525.19;5001120;28;20479;-69
2023/04/03 04:35:05;;;;;;;7.03;2.95;;;0.80;99.90;;;-0.63;100.00;98529.53;4994057;28;20054;-70
2023/04/03 04:37:32;;;;;;;3.85;2.17;;;0.80;99.90;;;-0.57;100.00;98526.22;4999327;28;20481;-69
2023/04/03 04:40:00;;;;;;;4.60;2.28;;;0.80;99.90;;;-0.54;100.00;98531.38;4998137;28;20042;-69
2023/04/03 04:42:28;;;;;;;4.95;2.55;;;0.80;99.90;;;-0.56;100.00;98522.84;4999645;28;20693;-70
2023/04/03 04:44:55;;;;;;;3.85;2.58;;;0.80;99.90;;;-0.60;100.00;98526.16;4997399;28;20053;-69
2023/04/03 04:47:23;;;;;;;9.15;2.92;;;0.90;99.90;;;-0.60;100.00;98520.22;5000659;28;20062;-68
2023/04/03 04:49:53;;;;;;;8.18;2.75;;;0.80;99.90;;;-0.69;100.00;98518.34;4998767;28;20069;-69
2023/04/03 04:52:27;;;;;;;8.85;3.15;;;0.80;99.90;;;-0.75;100.00;98525.88;5002624;28;20104;-70
2023/04/03 04:54:57;;;;;;;4.53;2.45;;;0.80;99.90;;;-0.65;100.00;98523.53;4999432;28;20531;-69
2023/04/03 04:57:24;;;;;;;4.45;2.33;;;0.70;99.90;;;-0.63;100.00;98533.75;4998497;28;20077;-70
2023/04/03 04:59:52;;;;;;;3.95;2.22;;;0.70;99.90;;;-0.71;100.00;98523.44;4999234;28;20532;-70
2023/04/03 05:02:18;;;;;;;7.18;2.35;;;0.70;99.90;;;-0.67;100.00;98525.19;5000605;28;20061;-70
2023/04/03 05:04:46;;;;;;;6.53;2.50;;;0.70;99.90;;;-0.66;100.00;98531.19;5000872;28;20049;-69
2023/04/03 05:07:13;;;;;;;4.28;2.15;;;0.70;99.90;;;-0.67;100.00;98535.38;5014985;28;20050;-68
2023/04/03 05:09:42;;;;;;;5.22;2.63;;;0.70;99.90;;;-0.68;100.00;98535.38;4999025;28;20145;-70
2023/04/03 05:12:09;;;;;;;5.30;2.53;;;0.70;99.90;;;-0.61;100.00;98534.66;5003384;28;20149;-70
2023/04/03 05:14:36;;;;;;;5.63;2.42;;;0.70;99.90;;;-0.59;100.00;98539.75;5002229;28;20042;-70
2023/04/03 05:17:03;;;;;;;8.43;2.53;;;0.70;99.90;;;-0.53;100.00;98534.78;4998377;28;20416;-71
2023/04/03 05:19:30;;;;;;;5.57;2.63;;;0.70;99.90;;;-0.61;100.00;98539.75;4987173;28;20054;-70
2023/04/03 05:22:00;;;;;;;5.30;2.67;;;0.70;99.90;;;-0.53;100.00;98540.72;4998725;28;20050;-71
2023/04/03 05:24:27;;;;;;;7.03;2.97;;;0.70;99.90;;;-0.63;100.00;98537.16;4997876;28;20167;-71
2023/04/03 05:26:54;;;;;;;6.40;2.75;;;0.70;99.90;;;-0.51;100.00;98541.63;5000495;28;20128;-71
2023/04/03 05:29:24;;;;;;;4.22;2.35;;;0.70;99.90;;;-0.44;100.00;98545.97;4999060;28;20136;-71
2023/04/03 05:31:52;;;;;;;5.82;2.65;;;0.80;99.90;;;-0.35;100.00;98537.63;5002197;28;20046;-71
2023/04/03 05:34:19;;;;;;;5.63;2.35;;;0.80;99.90;;;-0.25;100.00;98534.41;4998540;28;20065;-71
2023/04/03 05:36:46;;;;;;;5.03;1.85;;;0.90;99.90;;;-0.24;100.00;98537.81;4988256;28;20046;-71
2023/04/03 05:39:13;;;;;;;4.65;1.92;;;0.90;99.90;;;-0.18;100.00;98547.22;4994360;28;20050;-71
2023/04/03 05:41:40;;;;;;;6.22;2.20;;;1.00;99.90;;;-0.23;100.00;98542.94;4996911;28;20495;-71
2023/04/03 05:44:07;;;;;;;4.63;2.10;;;1.00;99.90;;;-0.13;100.00;98541.38;5001081;28;20539;-71
2023/04/03 05:46:35;;;;;;;7.22;1.95;;;1.10;99.90;;;-0.08;100.00;98546.56;4995641;28;20050;-71
2023/04/03 05:49:02;;;;;;;3.55;1.70;;;1.10;99.90;;;-0.04;100.00;98550.88;4995841;28;20054;-70
2023/04/03 05:51:34;;;;;;;3.10;2.03;;;1.10;99.90;;;-0.03;100.00;98550.03;4998037;28;20046;-71
2023/04/03 05:54:18;;;;;;;8.45;2.33;;;1.10;99.90;;;0.03;100.00;98560.34;4994545;28;21019;-70
2023/04/03 05:56:46;;;;;;;5.32;2.00;;;1.20;99.90;;;-0.01;100.00;98550.91;4998513;28;20070;-71
2023/04/03 05:59:13;;;;;;;5.68;2.25;;;1.20;99.90;;;0.06;100.00;98562.06;4997264;28;20133;-70
2023/04/03 06:01:40;;;;;;;5.13;2.40;;;1.20;99.90;;;0.15;100.00;98554.56;4996529;28;20045;-71
2023/04/03 06:04:08;;;;;;;7.25;2.45;;;1.30;99.90;;;0.22;100.00;98558.91;4997589;28;20049;-70
2023/04/03 06:06:57;;;;;;;7.13;2.38;;;1.40;99.90;;;0.27;100.00;98551.31;4999500;28;20133;-70
2023/04/03 06:09:30;;;;;;;6.47;2.50;;;1.40;99.90;;;0.30;100.00;98553.94;4982710;28;20050;-71
2023/04/03 06:11:58;;;;;;;5.95;2.53;;;1.40;99.90;;;0.38;100.00;98555.72;4986245;28;20137;-71
2023/04/03 06:14:26;;;;;;;5.18;2.20;;;1.50;99.90;;;0.55;100.00;98555.97;4995966;28;20606;-70
2023/04/03 06:16:54;;;;;;;6.43;2.10;;;1.60;99.90;;;0.54;100.00;98561.03;4996557;28;20137;-71
2023/04/03 06:19:22;;;;;;;6.22;2.38;;;1.70;99.90;;;0.74;100.00;98561.31;4994312;28;20204;-70
2023/04/03 06:21:50;;;;;;;4.55;2.33;;;1.70;99.90;;;0.90;100.00;98564.91;4986636;28;20409;-71
2023/04/03 06:24:18;;;;;;;7.97;2.80;;;1.90;99.90;;;0.88;100.00;98564.88;4996915;28;20393;-71
2023/04/03 06:26:46;;;;;;;4.15;2.20;;;1.90;99.90;;;1.11;100.00;98554.06;4995359;28;20053;-71
2023/04/03 06:29:13;;;;;;;10.52;3.63;;;2.10;99.90;;;1.01;100.00;98559.06;4998337;28;20053;-71
2023/04/03 06:31:40;;;;;;;4.80;2.30;;;2.10;99.90;;;1.04;100.00;98566.75;4993692;28;20130;-71
2023/04/03 06:34:08;;;;;;;5.50;2.35;;;2.20;99.90;;;1.16;100.00;98567.75;4999946;28;20050;-71
2023/04/03 06:36:35;;;;;;;4.95;2.42;;;2.20;99.90;;;1.21;100.00;98574.63;4997358;28;20077;-70
2023/04/03 06:39:03;;;;;;;5.30;2.63;;;2.30;99.90;;;1.37;100.00;98567.09;4999258;28;20065;-70
2023/04/03 06:41:32;;;;;;;7.32;2.92;;;2.40;99.90;;;1.44;100.00;98571.47;4996665;28;20049;-71
2023/04/03 06:44:02;;;;;;;5.43;2.67;;;2.50;99.90;;;1.52;100.00;98584.31;4998716;28;20054;-71
2023/04/03 06:46:29;;;;;;;7.25;2.40;;;2.50;99.90;;;1.58;100.00;98582.69;4997570;28;20161;-70
2023/04/03 06:48:57;;;;;;;6.78;2.95;;;2.60;99.90;;;1.62;100.00;98581.88;4999792;28;20138;-71
2023/04/03 06:51:27;;;;;;;8.88;2.65;;;2.70;99.90;;;1.52;100.00;98584.31;4995430;28;20051;-70
2023/04/03 06:53:58;;;;;;;7.22;2.42;;;2.60;99.90;;;1.65;100.00;98589.56;4996339;28;20161;-71
2023/04/03 06:56:26;;;;;;;5.40;1.95;;;2.70;99.90;;;1.62;100.00;98580.97;4998673;28;20120;-71
2023/04/03 06:58:56;;;;;;;6.15;2.25;;;2.80;99.90;;;1.91;100.00;98580.38;4997051;28;20397;-71
2023/04/03 07:01:26;;;;;;;2.85;1.50;;;2.90;99.90;;;1.88;100.00;98576.97;4996009;28;20061;-70
2023/04/03 07:03:53;;;;;;;6.63;2.28;;;3.00;99.90;;;1.80;100.00;98585.41;4996312;28;20078;-69
2023/04/03 07:06:20;;;;;;;5.82;2.35;;;3.00;99.90;;;1.80;100.00;98581.19;4997112;28;20054;-71
2023/04/03 07:08:48;;;;;;;5.85;2.30;;;3.10;99.90;;;1.88;100.00;98581.22;4985152;28;20140;-71
2023/04/03 07:11:16;;;;;;;6.15;1.80;;;3.10;99.90;;;1.91;100.00;98595.75;5002473;28;20062;-71
2023/04/03 07:13:46;;;;;;;7.22;1.90;;;3.10;99.90;;;2.04;100.00;98592.44;4996623;28;20440;-70
2023/04/03 07:16:13;;;;;;;4.80;1.50;;;3.10;99.90;;;2.16;100.00;98596.81;4998021;28;20110;-70
2023/04/03 07:18:41;;;;;;;5.85;2.00;;;3.20;99.90;;;2.28;100.00;98594.31;4994558;28;20135;-71
2023/04/03 07:21:08;;;;;;;8.25;1.88;;;3.30;99.90;;;2.40;100.00;98598.69;4999626;28;20046;-71
2023/04/03 07:23:35;;;;;;;7.07;2.05;;;3.30;99.90;;;2.42;100.00;98592.72;5001662;28;20085;-69
2023/04/03 07:27:08;;;;;;;6.97;2.17;;;3.50;99.90;;;2.42;100.00;98595.28;4997712;28;20041;-70
2023/04/03 07:29:35;;;;;;;6.10;2.03;;;3.40;99.90;;;2.56;100.00;98591.94;5003376;28;20046;-70
2023/04/03 07:32:03;;;;;;;8.43;1.60;;;3.50;99.90;;;2.28;100.00;98600.31;4999097;28;20054;-72
2023/04/03 07:34:30;;;;;;;8.43;2.42;;;3.50;99.90;;;2.41;100.00;98602.94;5001353;28;20495;-71
2023/04/03 07:36:58;;;;;;;5.32;1.70;;;3.50;99.90;;;2.51;100.00;98603.03;4999657;28;20060;-71
2023/04/03 07:39:26;;;;;;;7.35;2.20;;;3.50;99.90;;;2.24;100.00;98597.72;4996972;28;20056;-70
2023/04/03 07:41:53;;;;;;;7.15;2.33;;;3.60;99.90;;;2.51;100.00;98607.31;4999155;28;20060;-71
2023/04/03 07:44:21;;;;;;;5.53;1.77;;;3.70;99.90;;;2.81;100.00;98603.19;4995675;28;20137;-71
2023/04/03 07:46:48;;;;;;;4.88;1.92;;;3.70;99.90;;;2.80;100.00;98610.00;4997246;28;20061;-72
2023/04/03 07:49:16;;;;;;;8.00;2.20;;;3.90;99.90;;;2.93;100.00;98606.66;4995752;28;20084;-69
2023/04/03 07:51:44;;;;;;;9.63;2.78;;;3.90;99.90;;;2.96;100.00;98602.38;5013871;28;20057;-72
2023/04/03 07:54:11;;;;;;;5.68;2.15;;;4.10;99.90;;;3.27;100.00;98604.22;4998464;28;20448;-69
2023/04/03 07:56:38;;;;;;;10.73;2.50;;;4.20;99.90;;;3.09;100.00;98601.59;4998690;28;20071;-69
2023/04/03 07:59:06;;;;;;;5.28;1.65;;;4.10;99.90;;;3.15;100.00;98596.50;4996607;28;20042;-71
2023/04/03 08:02:31;;;;;;;7.68;2.38;;;4.20;99.90;;;3.30;100.00;98595.66;4999204;28;20125;-72
2023/04/03 08:04:59;;;;;;;8.48;1.85;;;4.30;99.90;;;3.89;100.00;98601.75;4965467;28;20074;-71
2023/04/03 08:07:26;;;;;;;7.10;1.95;;;4.40;99.90;;;4.49;100.00;98599.16;4965414;28;20047;-71
2023/04/03 08:09:53;;;;;;;4.38;1.38;;;4.70;99.90;;;3.77;100.00;98587.22;4978990;28;20069;-71
2023/04/03 08:12:20;;;;;;;6.07;1.70;;;4.70;99.90;;;3.89;100.00;98596.63;4999783;28;20050;-72
2023/04/03 08:14:47;;;;;;;7.20;1.55;;;4.90;99.90;;;3.85;100.00;98589.75;5000997;28;20053;-70
2023/04/03 08:17:14;;;;;;;6.07;1.70;;;4.90;99.90;;;3.77;100.00;98595.75;5005596;28;20061;-71
2023/04/03 08:19:41;;;;;;;5.95;1.70;;;4.90;99.90;;;3.53;100.00;98598.28;4999213;28;20068;-71
2023/04/03 08:22:08;;;;;;;6.32;1.30;;;4.90;99.90;;;3.43;100.00;98596.56;4995159;28;20038;-71
2023/04/03 08:24:35;;;;;;;6.68;1.90;;;4.80;99.90;;;3.68;100.00;98592.34;4999591;28;20144;-70
2023/04/03 08:27:05;;;;;;;8.95;2.25;;;4.80;99.90;;;3.98;100.00;98588.91;5004757;28;20137;-71
2023/04/03 08:29:32;;;;;;;8.70;2.20;;;4.90;99.90;;;4.63;100.00;98586.25;4999318;28;20419;-71
2023/04/03 08:32:00;;;;;;;4.45;1.92;;;5.60;99.90;;;4.34;100.00;98584.63;4999722;28;20042;-70
2023/04/03 08:34:27;;;;;;;6.90;1.80;;;5.70;99.90;;;4.34;100.00;98589.75;4998443;28;20090;-71
2023/04/03 08:36:54;;;;;;;5.45;1.77;;;5.60;99.90;;;4.13;100.00;98586.34;5001962;28;20064;-70
2023/04/03 08:39:21;;;;;;;6.70;1.60;;;5.60;99.90;;;4.63;100.00;98571.72;4983896;28;20053;-69
2023/04/03 08:41:49;;;;;;;6.22;1.60;;;5.90;99.90;;;4.82;100.00;98585.34;4997454;28;20054;-70
2023/04/03 08:44:41;;;;;;;5.38;1.35;;;6.40;99.90;;;4.47;100.00;98573.47;4996156;28;20526;-70
2023/04/03 08:47:25;;;;;;;7.35;1.40;;;6.20;99.90;;;4.98;100.00;98587.00;5002100;28;20046;-69
2023/04/03 08:50:02;;;;;;;8.57;1.60;;;6.40;99.90;;;4.49;100.00;98582.00;4997878;28;20058;-71
2023/04/03 08:52:41;;;;;;;7.00;1.58;;;6.10;99.90;;;5.71;100.00;98584.03;5001321;28;20176;-69
2023/04/03 08:55:15;;;;;;;3.75;1.27;;;6.80;99.90;;;6.15;100.00;98575.97;4998093;28;20580;-71
2023/04/03 08:57:45;;;;;;;6.50;1.50;;;7.90;99.90;;;6.35;100.00;98570.66;4998288;28;20046;-71
2023/04/03 09:00:25;;;;;;;5.40;1.45;;;8.10;99.90;;;6.41;100.00;98577.44;4997900;28;20152;-68
2023/04/03 09:02:55;;;;;;;11.02;1.60;;;8.20;99.90;;;6.45;100.00;98582.59;5001182;28;20049;-70
2023/04/03 09:06:01;;;;;;;5.78;1.20;;;8.00;99.90;;;6.95;100.00;98567.41;4997649;28;20087;-70
2023/04/03 09:08:37;;;;;;;5.85;1.40;;;9.00;99.90;;;7.12;100.00;98578.38;4981761;28;20054;-70
2023/04/03 09:11:28;;;;;;;3.65;1.30;;;9.10;99.90;;;7.66;100.00;98571.63;4988683;28;20049;-70
2023/04/03 09:14:55;;;;;;;6.28;1.35;;;9.20;99.90;;;7.23;100.00;98572.22;4986900;28;20212;-70
2023/04/03 09:17:46;;;;;;;5.70;1.65;;;9.50;99.90;;;5.96;100.00;98583.03;4987569;28;20057;-69
2023/04/03 09:20:41;;;;;;;4.95;1.63;;;8.50;99.90;;;6.49;100.00;98573.94;4998489;28;20058;-70
2023/04/03 09:23:32;;;;;;;7.03;1.30;;;8.20;99.90;;;6.52;100.00;98572.19;4999455;28;20140;-69
2023/04/03 09:26:10;;;;;;;6.82;1.63;;;8.20;99.90;;;6.84;100.00;98577.88;5011716;28;20133;-70
2023/04/03 09:28:42;;;;;;;4.60;1.40;;;8.40;99.90;;;7.25;100.00;98583.38;4998563;28;20057;-70
2023/04/03 09:31:23;;;;;;;7.25;1.40;;;9.00;99.90;;;7.01;100.00;98576.81;5008963;28;20347;-69
2023/04/03 09:34:00;;;;;;;5.88;1.10;;;8.60;99.90;;;6.56;100.00;98585.03;4991475;28;20050;-70
2023/04/03 09:36:47;;;;;;;3.63;1.20;;;8.10;99.90;;;7.99;100.00;98580.59;4995218;28;20136;-69
2023/04/03 09:39:29;;;;;;;3.85;1.30;;;8.80;99.90;;;7.66;100.00;98580.25;4998147;28;20048;-70
2023/04/03 09:42:24;;;;;;;4.65;1.25;;;9.70;99.90;;;8.53;100.00;98569.31;4997034;28;20057;-69
2023/04/03 09:45:02;;;;;;;4.82;1.08;;;10.00;99.90;;;8.43;100.00;98558.31;4996478;28;20050;-70
2023/04/03 09:47:35;;;;;;;2.97;1.10;;;10.20;99.90;;;8.39;100.00;98551.44;4984710;28;20653;-69
2023/04/03 09:50:20;;;;;;;3.40;1.30;;;10.50;99.90;;;9.75;100.00;98554.69;4983864;28;20049;-70
2023/04/03 09:52:54;;;;;;;4.03;1.30;;;10.70;99.90;;;9.88;100.00;98553.53;5001828;28;20085;-70
2023/04/03 09:55:29;;;;;;;3.38;0.90;;;11.00;99.90;;;9.42;100.00;98559.78;4995438;28;20064;-69
2023/04/03 09:58:00;;;;;;;4.03;1.10;;;11.30;98.80;;;9.29;100.00;98563.53;5015662;28;20076;-70
2023/04/03 10:00:34;;;;;;;4.05;1.10;;;11.30;98.80;;;9.36;100.00;98567.69;4997294;28;20048;-71
2023/04/03 10:03:02;;;;;;;4.75;1.00;;;11.30;98.90;;;8.56;100.00;98546.84;4997597;28;20073;-71
2023/04/03 10:05:39;;;;;;;4.38;1.08;;;10.80;97.30;;;8.88;100.00;98562.66;4993847;28;20064;-70
2023/04/03 10:08:14;;;;;;;3.45;1.10;;;10.40;97.40;;;9.29;100.00;98554.00;5001960;28;20066;-70
2023/04/03 10:10:46;;;;;;;5.38;1.10;;;10.70;97.40;;;9.26;100.00;98554.09;4997555;28;20104;-70
2023/04/03 10:13:20;;;;;;;2.95;0.93;;;11.20;97.00;;;9.35;100.00;98564.25;4997578;28;20501;-69
2023/04/03 10:16:13;;;;;;;2.92;1.00;;;11.10;96.80;;;10.04;100.00;98560.03;4998048;28;20221;-71
2023/04/03 10:18:54;;;;;;;4.10;1.00;;;11.20;98.10;;;8.69;100.00;98563.00;4996433;28;20125;-70
2023/04/03 10:21:27;;;;;;;3.67;0.80;;;10.70;97.00;;;9.20;100.00;98554.22;4997049;28;20080;-69
2023/04/03 10:24:20;;;;;;;4.82;1.00;;;10.80;97.80;;;9.79;100.00;98552.00;4998073;28;20462;-70
2023/04/03 10:27:02;;;;;;;3.58;0.95;;;;;;;9.23;100.00;98546.34;4974018;28;20050;-70
2023/04/03 10:30:19;;;;;;;3.45;0.90;;;11.00;98.00;;;9.49;100.00;98553.56;4996213;28;20057;-69
2023/04/03 10:33:01;;;;;;;5.47;0.93;;;10.90;99.90;;;10.05;100.00;98537.53;4998363;28;20080;-69
2023/04/03 10:36:09;;;;;;;3.60;1.10;;;10.60;98.10;;;10.03;100.00;98544.50;4979324;28;20124;-69
2023/04/03 10:38:53;;;;;;;5.22;1.17;;;11.30;97.30;;;9.32;100.00;98547.91;4997375;28;20126;-70
2023/04/03 10:41:58;;;;;;;4.03;0.90;;;10.80;98.50;;;9.45;100.00;98544.16;4996779;28;20069;-71